sensor_id;sensor_type;location;lat;lon;timestamp;temperature;humidity
65536;DHT22;52145;49.342;9.116;2023-02-18T08:59:14;12.80;99.90
65536;DHT22;52145;49.342;9.116;2023-02-18T09:01:39;12.80;99.90
65536;DHT22;52145;49.342;9.116;2023-02-18T09:04:05;12.80;99.90
65536;DHT22;52145;49.342;9.116;2023-02-18T12:43:03;13.70;99.90
65536;DHT22;52145;49.342;9.116;2023-02-18T12:54:00;14.90;99.90
65536;DHT22;52145;49.342;9.116;2023-02-18T12:56:51;16.40;99.90
65536;DHT22;52145;49.342;9.116;2023-02-18T12:59:38;17.40;99.90
65536;DHT22;52145;49.342;9.116;2023-02-18T13:10:58;18.50;99.90
65536;DHT22;52145;49.342;9.116;2023-02-18T13:13:40;18.70;99.90
65536;DHT22;52145;49.342;9.116;2023-02-18T13:16:12;17.40;99.90
65536;DHT22;52145;49.342;9.116;2023-02-18T13:18:43;18.30;99.90
65536;DHT22;52145;49.342;9.116;2023-02-18T13:21:14;18.30;99.90
65536;DHT22;52145;49.342;9.116;2023-02-18T13:23:51;18.50;99.90
65536;DHT22;52145;49.342;9.116;2023-02-18T13:26:18;18.10;99.90
65536;DHT22;52145;49.342;9.116;2023-02-18T13:34:38;18.60;99.90
65536;DHT22;52145;49.342;9.116;2023-02-18T13:37:21;17.90;99.90
65536;DHT22;52145;49.342;9.116;2023-02-18T13:39:56;17.20;99.90
65536;DHT22;52145;49.342;9.116;2023-02-18T13:42:32;16.80;99.90
65536;DHT22;52145;49.342;9.116;2023-02-18T13:47:44;16.20;99.90
65536;DHT22;52145;49.342;9.116;2023-02-18T13:52:51;15.90;99.90
65536;DHT22;52145;49.342;9.116;2023-02-18T13:55:32;16.00;99.90
65536;DHT22;52145;49.342;9.116;2023-02-18T13:58:00;15.40;99.90
65536;DHT22;52145;49.342;9.116;2023-02-18T14:00:35;15.20;99.90
65536;DHT22;52145;49.342;9.116;2023-02-18T14:05:58;14.80;99.90
65536;DHT22;52145;49.342;9.116;2023-02-18T14:08:38;14.80;99.90
65536;DHT22;52145;49.342;9.116;2023-02-18T14:14:12;14.60;99.90
65536;DHT22;52145;49.342;9.116;2023-02-18T14:19:38;14.60;99.90
65536;DHT22;52145;49.342;9.116;2023-02-18T14:22:25;14.70;99.90
65536;DHT22;52145;49.342;9.116;2023-02-18T14:24:56;14.70;99.90
65536;DHT22;52145;49.342;9.116;2023-02-18T14:27:25;14.70;99.90
65536;DHT22;52145;49.342;9.116;2023-02-18T14:29:51;14.60;99.90
65536;DHT22;52145;49.342;9.116;2023-02-18T14:32:18;14.60;99.90
65536;DHT22;52145;49.342;9.116;2023-02-18T14:35:02;14.60;99.90
65536;DHT22;52145;49.342;9.116;2023-02-18T14:40:38;14.50;99.90
65536;DHT22;52145;49.342;9.116;2023-02-18T14:43:16;14.40;99.90
65536;DHT22;52145;49.342;9.116;2023-02-18T14:46:02;14.20;99.90
65536;DHT22;52145;49.342;9.116;2023-02-18T14:50:56;14.00;99.90
65536;DHT22;52145;49.342;9.116;2023-02-18T14:53:25;14.00;99.90
65536;DHT22;52145;49.342;9.116;2023-02-18T14:55:57;14.00;99.90
65536;DHT22;52145;49.342;9.116;2023-02-18T15:01:32;13.90;99.90
65536;DHT22;52145;49.342;9.116;2023-02-18T15:04:00;13.90;99.90
65536;DHT22;52145;49.342;9.116;2023-02-18T15:08:56;13.80;99.90
65536;DHT22;52145;49.342;9.116;2023-02-18T15:11:57;13.80;99.90
65536;DHT22;52145;49.342;9.116;2023-02-18T15:14:39;13.60;99.90
65536;DHT22;52145;49.342;9.116;2023-02-18T15:17:12;13.60;99.90
65536;DHT22;52145;49.342;9.116;2023-02-18T15:19:42;13.50;99.90
65536;DHT22;52145;49.342;9.116;2023-02-18T15:22:21;13.50;99.90
65536;DHT22;52145;49.342;9.116;2023-02-18T15:24:49;13.50;99.90
65536;DHT22;52145;49.342;9.116;2023-02-18T15:29:41;13.30;99.90
65536;DHT22;52145;49.342;9.116;2023-02-18T15:32:15;13.30;99.90
65536;DHT22;52145;49.342;9.116;2023-02-18T15:34:42;13.20;99.90
65536;DHT22;52145;49.342;9.116;2023-02-18T15:37:11;13.30;99.90
65536;DHT22;52145;49.342;9.116;2023-02-18T15:39:38;13.10;99.90
65536;DHT22;52145;49.342;9.116;2023-02-18T15:44:55;13.00;99.90
65536;DHT22;52145;49.342;9.116;2023-02-18T15:47:22;13.00;99.90
65536;DHT22;52145;49.342;9.116;2023-02-18T15:49:52;13.00;99.90
65536;DHT22;52145;49.342;9.116;2023-02-18T15:52:29;13.00;99.90
65536;DHT22;52145;49.342;9.116;2023-02-18T15:55:02;12.90;99.90
65536;DHT22;52145;49.342;9.116;2023-02-18T15:57:28;12.90;99.90
65536;DHT22;52145;49.342;9.116;2023-02-18T15:59:59;12.90;99.90
65536;DHT22;52145;49.342;9.116;2023-02-18T16:02:28;12.80;99.90
65536;DHT22;52145;49.342;9.116;2023-02-18T16:04:58;12.80;99.90
65536;DHT22;52145;49.342;9.116;2023-02-18T16:07:26;12.80;99.90
65536;DHT22;52145;49.342;9.116;2023-02-18T16:12:57;12.80;99.90
65536;DHT22;52145;49.342;9.116;2023-02-18T16:15:35;12.80;99.90
65536;DHT22;52145;49.342;9.116;2023-02-18T16:18:02;12.70;99.90
65536;DHT22;52145;49.342;9.116;2023-02-18T16:20:33;12.70;99.90
65536;DHT22;52145;49.342;9.116;2023-02-18T16:23:11;12.70;99.90
65536;DHT22;52145;49.342;9.116;2023-02-18T16:28:25;12.50;99.90
65536;DHT22;52145;49.342;9.116;2023-02-18T16:30:48;12.50;99.90
65536;DHT22;52145;49.342;9.116;2023-02-18T16:33:14;12.50;99.90
65536;DHT22;52145;49.342;9.116;2023-02-18T16:35:41;12.50;99.90
65536;DHT22;52145;49.342;9.116;2023-02-18T16:38:09;12.50;99.90
65536;DHT22;52145;49.342;9.116;2023-02-18T16:40:38;12.40;99.90
65536;DHT22;52145;49.342;9.116;2023-02-18T16:43:17;12.40;99.90
65536;DHT22;52145;49.342;9.116;2023-02-18T16:45:48;12.30;99.90
65536;DHT22;52145;49.342;9.116;2023-02-18T16:48:28;12.20;99.90
65536;DHT22;52145;49.342;9.116;2023-02-18T16:50:55;12.10;99.90
65536;DHT22;52145;49.342;9.116;2023-02-18T16:53:21;12.10;99.90
65536;DHT22;52145;49.342;9.116;2023-02-18T16:55:48;12.10;99.90
65536;DHT22;52145;49.342;9.116;2023-02-18T16:58:14;12.10;99.90
65536;DHT22;52145;49.342;9.116;2023-02-18T17:00:39;12.10;99.90
65536;DHT22;52145;49.342;9.116;2023-02-18T17:03:05;12.20;99.90
65536;DHT22;52145;49.342;9.116;2023-02-18T17:05:32;12.10;99.90
65536;DHT22;52145;49.342;9.116;2023-02-18T17:08:24;12.20;99.90
65536;DHT22;52145;49.342;9.116;2023-02-18T17:10:51;12.10;99.90
65536;DHT22;52145;49.342;9.116;2023-02-18T17:13:26;12.10;99.90
65536;DHT22;52145;49.342;9.116;2023-02-18T17:15:53;12.10;99.90
65536;DHT22;52145;49.342;9.116;2023-02-18T17:18:20;12.10;99.90
65536;DHT22;52145;49.342;9.116;2023-02-18T17:20:47;12.10;99.90
65536;DHT22;52145;49.342;9.116;2023-02-18T17:23:14;12.00;99.90
65536;DHT22;52145;49.342;9.116;2023-02-18T17:25:40;12.00;99.90
65536;DHT22;52145;49.342;9.116;2023-02-18T17:28:07;12.00;99.90
65536;DHT22;52145;49.342;9.116;2023-02-18T17:30:37;12.00;99.90
65536;DHT22;52145;49.342;9.116;2023-02-18T17:33:04;12.00;99.90
65536;DHT22;52145;49.342;9.116;2023-02-18T17:35:30;11.90;99.90
65536;DHT22;52145;49.342;9.116;2023-02-18T17:37:56;11.90;99.90
65536;DHT22;52145;49.342;9.116;2023-02-18T17:40:24;11.90;99.90
65536;DHT22;52145;49.342;9.116;2023-02-18T17:42:53;11.90;99.90
65536;DHT22;52145;49.342;9.116;2023-02-18T17:45:35;11.90;99.90
65536;DHT22;52145;49.342;9.116;2023-02-18T17:48:01;11.80;99.90
65536;DHT22;52145;49.342;9.116;2023-02-18T17:50:28;11.80;99.90
65536;DHT22;52145;49.342;9.116;2023-02-18T17:52:54;11.80;99.90
65536;DHT22;52145;49.342;9.116;2023-02-18T17:55:34;11.80;99.90
65536;DHT22;52145;49.342;9.116;2023-02-18T17:58:00;11.80;99.90
65536;DHT22;52145;49.342;9.116;2023-02-18T18:00:29;11.80;99.90
65536;DHT22;52145;49.342;9.116;2023-02-18T18:02:55;11.80;99.90
65536;DHT22;52145;49.342;9.116;2023-02-18T18:05:23;11.70;99.90
65536;DHT22;52145;49.342;9.116;2023-02-18T18:07:50;11.70;99.90
65536;DHT22;52145;49.342;9.116;2023-02-18T18:10:18;11.70;99.90
65536;DHT22;52145;49.342;9.116;2023-02-18T18:12:44;11.70;99.90
65536;DHT22;52145;49.342;9.116;2023-02-18T18:17:47;11.60;99.90
65536;DHT22;52145;49.342;9.116;2023-02-18T18:20:13;11.60;99.90
65536;DHT22;52145;49.342;9.116;2023-02-18T18:22:38;11.50;99.90
65536;DHT22;52145;49.342;9.116;2023-02-18T18:25:24;11.50;99.90
65536;DHT22;52145;49.342;9.116;2023-02-18T18:27:51;11.50;99.90
65536;DHT22;52145;49.342;9.116;2023-02-18T18:30:23;11.50;99.90
65536;DHT22;52145;49.342;9.116;2023-02-18T18:32:49;11.50;99.90
65536;DHT22;52145;49.342;9.116;2023-02-18T18:35:24;11.50;99.90
65536;DHT22;52145;49.342;9.116;2023-02-18T18:37:50;11.50;99.90
65536;DHT22;52145;49.342;9.116;2023-02-18T18:40:17;11.50;99.90
65536;DHT22;52145;49.342;9.116;2023-02-18T18:42:44;11.50;99.90
65536;DHT22;52145;49.342;9.116;2023-02-18T18:45:24;11.50;99.90
65536;DHT22;52145;49.342;9.116;2023-02-18T18:47:51;11.50;99.90
65536;DHT22;52145;49.342;9.116;2023-02-18T18:50:18;11.50;99.90
65536;DHT22;52145;49.342;9.116;2023-02-18T18:52:44;11.50;99.90
65536;DHT22;52145;49.342;9.116;2023-02-18T18:55:36;11.50;99.90
65536;DHT22;52145;49.342;9.116;2023-02-18T18:58:03;11.50;99.90
65536;DHT22;52145;49.342;9.116;2023-02-18T19:00:33;11.50;99.90
65536;DHT22;52145;49.342;9.116;2023-02-18T19:02:59;11.50;99.90
65536;DHT22;52145;49.342;9.116;2023-02-18T19:05:31;11.50;99.90
65536;DHT22;52145;49.342;9.116;2023-02-18T19:07:57;11.50;99.90
65536;DHT22;52145;49.342;9.116;2023-02-18T19:10:27;11.50;99.90
65536;DHT22;52145;49.342;9.116;2023-02-18T19:12:53;11.50;99.90
65536;DHT22;52145;49.342;9.116;2023-02-18T19:15:21;11.40;99.90
65536;DHT22;52145;49.342;9.116;2023-02-18T19:17:56;11.40;99.90
65536;DHT22;52145;49.342;9.116;2023-02-18T19:20:25;11.40;99.90
65536;DHT22;52145;49.342;9.116;2023-02-18T19:22:51;11.40;99.90
65536;DHT22;52145;49.342;9.116;2023-02-18T19:25:18;11.40;99.90
65536;DHT22;52145;49.342;9.116;2023-02-18T19:27:45;11.40;99.90
65536;DHT22;52145;49.342;9.116;2023-02-18T19:30:22;11.30;99.90
65536;DHT22;52145;49.342;9.116;2023-02-18T19:32:50;11.40;99.90
65536;DHT22;52145;49.342;9.116;2023-02-18T19:35:15;11.30;99.90
65536;DHT22;52145;49.342;9.116;2023-02-18T19:37:41;11.30;99.90
65536;DHT22;52145;49.342;9.116;2023-02-18T19:40:10;11.30;99.90
65536;DHT22;52145;49.342;9.116;2023-02-18T19:42:36;11.30;99.90
65536;DHT22;52145;49.342;9.116;2023-02-18T19:45:02;11.20;99.90
65536;DHT22;52145;49.342;9.116;2023-02-18T19:47:28;11.20;99.90
65536;DHT22;52145;49.342;9.116;2023-02-18T19:49:54;11.20;99.90
65536;DHT22;52145;49.342;9.116;2023-02-18T19:52:20;11.20;99.90
65536;DHT22;52145;49.342;9.116;2023-02-18T19:54:46;11.20;99.90
65536;DHT22;52145;49.342;9.116;2023-02-18T19:57:12;11.20;99.90
65536;DHT22;52145;49.342;9.116;2023-02-18T19:59:38;11.20;99.90
65536;DHT22;52145;49.342;9.116;2023-02-18T20:02:04;11.20;99.90
65536;DHT22;52145;49.342;9.116;2023-02-18T20:04:31;11.20;99.90
65536;DHT22;52145;49.342;9.116;2023-02-18T20:06:56;11.20;99.90
65536;DHT22;52145;49.342;9.116;2023-02-18T20:09:22;11.10;99.90
65536;DHT22;52145;49.342;9.116;2023-02-18T20:11:47;11.10;99.90
65536;DHT22;52145;49.342;9.116;2023-02-18T20:14:13;11.10;99.90
65536;DHT22;52145;49.342;9.116;2023-02-18T20:16:39;11.10;99.90
65536;DHT22;52145;49.342;9.116;2023-02-18T20:19:05;11.10;99.90
65536;DHT22;52145;49.342;9.116;2023-02-18T20:21:30;11.10;99.90
65536;DHT22;52145;49.342;9.116;2023-02-18T20:23:56;11.10;99.90
65536;DHT22;52145;49.342;9.116;2023-02-18T20:26:22;11.10;99.90
65536;DHT22;52145;49.342;9.116;2023-02-18T20:28:48;11.00;99.90
65536;DHT22;52145;49.342;9.116;2023-02-18T20:31:14;11.00;99.90
65536;DHT22;52145;49.342;9.116;2023-02-18T20:33:40;11.00;99.90
65536;DHT22;52145;49.342;9.116;2023-02-18T20:36:10;10.90;99.90
65536;DHT22;52145;49.342;9.116;2023-02-18T20:38:37;10.90;99.90
65536;DHT22;52145;49.342;9.116;2023-02-18T20:41:08;11.00;99.90
65536;DHT22;52145;49.342;9.116;2023-02-18T20:43:34;10.90;99.90
65536;DHT22;52145;49.342;9.116;2023-02-18T20:46:04;11.00;99.90
